createdAt,value
2019-05-13T00:00:54.105Z,2.20
2019-05-13T00:03:24.444Z,2.10
2019-05-13T00:05:53.930Z,2.10
2019-05-13T00:08:24.870Z,2.12
2019-05-13T00:10:54.653Z,2.10
2019-05-13T00:13:24.099Z,2.15
2019-05-13T00:15:54.354Z,2.20
2019-05-13T00:18:25.013Z,2.10
2019-05-13T00:20:54.500Z,2.33
2019-05-13T00:23:24.037Z,2.20
2019-05-13T00:25:54.521Z,2.10
2019-05-13T00:28:24.230Z,2.02
2019-05-13T00:30:54.382Z,2.27
2019-05-13T00:33:24.500Z,2.20
2019-05-13T00:35:54.035Z,2.40
2019-05-13T00:38:24.538Z,2.30
2019-05-13T00:40:54.711Z,2.30
2019-05-13T00:43:25.307Z,2.58
2019-05-13T00:45:55.151Z,2.50
2019-05-13T00:48:24.646Z,2.62
2019-05-13T00:50:54.565Z,2.15
2019-05-13T00:53:24.118Z,2.20
2019-05-13T00:55:53.820Z,2.72
2019-05-13T00:58:24.211Z,2.50
2019-05-13T01:00:54.625Z,2.80
2019-05-13T01:03:27.852Z,2.45
2019-05-13T01:05:55.434Z,2.17
2019-05-13T01:08:25.926Z,2.05
2019-05-13T01:10:55.848Z,2.17
2019-05-13T01:13:25.655Z,2.33
2019-05-13T01:15:55.245Z,2.50
2019-05-13T01:18:24.699Z,2.22
2019-05-13T01:20:54.416Z,2.27
2019-05-13T01:23:24.198Z,2.22
2019-05-13T01:25:54.582Z,2.67
2019-05-13T01:28:24.438Z,2.87
2019-05-13T01:30:54.253Z,2.75
2019-05-13T01:33:24.764Z,2.27
2019-05-13T01:35:54.246Z,2.58
2019-05-13T01:38:24.272Z,2.30
2019-05-13T01:40:54.230Z,2.42
2019-05-13T01:43:24.447Z,2.92
2019-05-13T01:45:54.130Z,2.35
2019-05-13T01:48:24.063Z,2.70
2019-05-13T01:50:54.193Z,2.52
2019-05-13T01:53:24.515Z,2.85
2019-05-13T01:55:54.056Z,2.40
2019-05-13T01:58:23.980Z,2.30
2019-05-13T02:00:55.181Z,2.58
2019-05-13T02:03:24.889Z,2.27
2019-05-13T02:05:54.631Z,2.52
2019-05-13T02:08:24.655Z,2.87
2019-05-13T02:10:55.545Z,2.60
2019-05-13T02:13:45.817Z,2.45
2019-05-13T02:16:15.259Z,2.98
2019-05-13T02:18:44.849Z,2.92
2019-05-13T02:21:14.333Z,2.92
2019-05-13T02:23:44.250Z,2.90
2019-05-13T02:26:13.943Z,3.08
2019-05-13T02:28:43.729Z,2.80
2019-05-13T02:31:21.330Z,2.80
2019-05-13T02:33:44.895Z,3.05
2019-05-13T02:36:14.459Z,3.22
2019-05-13T02:38:44.090Z,2.83
2019-05-13T02:41:14.537Z,2.92
2019-05-13T02:43:45.698Z,3.05
2019-05-13T02:46:15.497Z,2.50
2019-05-13T02:48:45.004Z,2.87
2019-05-13T02:51:14.465Z,3.27
2019-05-13T02:53:43.975Z,3.12
2019-05-13T02:56:13.448Z,3.17
2019-05-13T02:58:43.128Z,3.35
2019-05-13T03:01:12.946Z,2.75
2019-05-13T03:03:44.411Z,3.15
2019-05-13T03:06:13.630Z,3.30
2019-05-13T03:08:49.479Z,3.12
2019-05-13T03:11:14.278Z,3.27
2019-05-13T03:13:43.747Z,3.15
2019-05-13T03:16:27.102Z,3.45
2019-05-13T03:18:56.684Z,4.05
2019-05-13T03:21:26.518Z,3.27
2019-05-13T03:23:56.038Z,3.08
2019-05-13T03:26:25.479Z,3.17
2019-05-13T03:28:54.966Z,3.22
2019-05-13T03:31:26.400Z,3.65
2019-05-13T03:33:56.705Z,3.30
2019-05-13T03:36:26.836Z,3.42
2019-05-13T03:39:05.644Z,3.30
2019-05-13T03:41:32.949Z,3.92
2019-05-13T03:44:06.770Z,4.00
2019-05-13T03:46:42.348Z,4.25
2019-05-13T03:49:13.737Z,3.77
2019-05-13T03:51:43.201Z,3.80
2019-05-13T03:54:13.127Z,4.25
2019-05-13T03:56:42.933Z,4.42
2019-05-13T03:59:13.468Z,3.72
2019-05-13T04:01:43.687Z,3.83
2019-05-13T04:04:13.183Z,4.22
2019-05-13T04:06:43.052Z,3.85
2019-05-13T04:09:26.210Z,4.12
2019-05-13T04:11:45.616Z,3.98
2019-05-13T04:14:16.344Z,4.08
2019-05-13T04:16:45.859Z,3.37
2019-05-13T04:19:16.464Z,3.58
2019-05-13T04:21:45.971Z,4.00
2019-05-13T04:24:16.115Z,3.60
2019-05-13T04:26:45.700Z,4.70
2019-05-13T04:29:15.327Z,4.85
2019-05-13T04:31:44.838Z,4.28
2019-05-13T04:34:14.331Z,3.55
2019-05-13T04:36:43.787Z,3.92
2019-05-13T04:39:14.255Z,4.17
2019-05-13T04:41:43.751Z,4.05
2019-05-13T04:44:13.387Z,3.95
2019-05-13T04:46:43.665Z,3.70
2019-05-13T04:49:13.368Z,3.85
2019-05-13T04:51:43.000Z,3.92
2019-05-13T04:54:13.143Z,4.30
2019-05-13T04:56:43.017Z,3.70
2019-05-13T04:59:12.994Z,3.60
2019-05-13T05:02:14.442Z,3.72
2019-05-13T05:04:55.934Z,4.28
2019-05-13T05:07:48.107Z,4.00
2019-05-13T05:10:38.757Z,4.12
2019-05-13T05:13:24.264Z,3.75
2019-05-13T05:16:28.560Z,3.72
2019-05-13T05:19:12.098Z,3.72
2019-05-13T05:21:46.539Z,3.47
2019-05-13T05:24:22.282Z,3.62
2019-05-13T05:27:14.402Z,3.65
2019-05-13T05:29:46.936Z,3.50
2019-05-13T05:32:45.361Z,3.80
2019-05-13T05:35:45.095Z,3.40
2019-05-13T05:38:38.153Z,4.05
2019-05-13T05:41:12.107Z,3.83
2019-05-13T05:43:45.412Z,3.52
2019-05-13T05:46:16.234Z,3.45
2019-05-13T05:48:50.711Z,3.95
2019-05-13T05:51:22.178Z,3.47
2019-05-13T05:53:53.346Z,4.20
2019-05-13T05:56:23.683Z,4.10
2019-05-13T05:58:54.707Z,3.25
2019-05-13T06:01:24.937Z,3.42
2019-05-13T06:03:56.778Z,3.65
2019-05-13T06:06:28.825Z,3.60
2019-05-13T06:09:01.738Z,3.52
2019-05-13T06:11:33.381Z,4.00
2019-05-13T06:14:03.086Z,3.87
2019-05-13T06:16:33.228Z,3.80
2019-05-13T06:19:02.747Z,3.62
2019-05-13T06:21:32.278Z,3.65
2019-05-13T06:24:02.746Z,3.92
2019-05-13T06:26:32.518Z,3.72
2019-05-13T06:29:02.713Z,3.55
2019-05-13T06:31:32.727Z,3.65
2019-05-13T06:34:02.274Z,3.50
2019-05-13T06:36:31.909Z,3.60
2019-05-13T06:39:02.333Z,3.60
2019-05-13T06:41:32.515Z,3.40
2019-05-13T06:44:02.674Z,3.08
2019-05-13T06:46:32.473Z,3.52
2019-05-13T06:49:03.168Z,3.47
2019-05-13T06:51:32.720Z,3.72
2019-05-13T06:54:02.518Z,3.50
2019-05-13T06:56:33.654Z,3.17
2019-05-13T06:59:03.180Z,3.70
2019-05-13T07:01:32.691Z,3.52
2019-05-13T07:04:05.802Z,3.25
2019-05-13T07:06:35.666Z,7.35
2019-05-13T07:09:07.106Z,3.80
2019-05-13T07:11:36.650Z,3.08
2019-05-13T07:14:06.735Z,3.25
2019-05-13T07:16:36.575Z,3.55
2019-05-13T07:19:06.461Z,3.65
2019-05-13T07:21:35.920Z,3.17
2019-05-13T07:24:05.484Z,3.65
2019-05-13T07:26:34.919Z,3.62
2019-05-13T07:29:05.096Z,3.62
2019-05-13T07:31:35.215Z,3.65
2019-05-13T07:34:04.901Z,3.60
2019-05-13T07:36:34.920Z,3.40
2019-05-13T07:39:07.821Z,3.55
2019-05-13T07:41:39.746Z,3.85
2019-05-13T07:44:08.863Z,3.10
2019-05-13T07:46:38.316Z,3.10
2019-05-13T07:49:07.896Z,3.15
2019-05-13T07:51:37.352Z,2.95
2019-05-13T07:54:06.923Z,3.17
2019-05-13T07:56:36.411Z,3.62
2019-05-13T07:59:05.956Z,3.47
2019-05-13T08:01:35.474Z,3.33
2019-05-13T08:04:05.232Z,3.17
2019-05-13T08:06:35.075Z,3.00
2019-05-13T08:09:08.186Z,3.33
2019-05-13T08:11:56.189Z,3.20
2019-05-13T08:14:08.926Z,3.67
2019-05-13T08:16:38.367Z,2.95
2019-05-13T08:19:07.930Z,3.15
2019-05-13T08:21:37.401Z,2.70
2019-05-13T08:24:07.253Z,2.77
2019-05-13T08:26:38.155Z,3.00
2019-05-13T08:29:08.245Z,2.95
2019-05-13T08:31:38.198Z,2.62
2019-05-13T08:34:11.550Z,3.35
2019-05-13T08:36:42.674Z,3.35
2019-05-13T08:39:12.733Z,2.70
2019-05-13T08:41:42.611Z,3.83
2019-05-13T08:44:12.565Z,3.00
2019-05-13T08:46:42.151Z,2.80
2019-05-13T08:49:12.081Z,2.55
2019-05-13T08:51:42.384Z,3.30
2019-05-13T08:54:12.135Z,4.17
2019-05-13T08:56:41.898Z,3.15
2019-05-13T08:59:11.923Z,3.12
2019-05-13T09:01:42.756Z,2.87
2019-05-13T09:04:12.575Z,3.52
2019-05-13T09:06:42.468Z,2.98
2019-05-13T09:09:12.122Z,2.70
2019-05-13T09:11:42.264Z,1.95
2019-05-13T09:14:13.381Z,2.80
2019-05-13T09:16:42.823Z,2.22
2019-05-13T09:21:43.488Z,2.27
2019-05-13T09:24:25.395Z,2.37
2019-05-13T09:26:44.336Z,2.35
2019-05-13T09:29:13.928Z,2.65
2019-05-13T09:31:43.429Z,2.20
2019-05-13T09:34:12.985Z,2.02
2019-05-13T09:36:42.816Z,2.55
2019-05-13T09:39:12.740Z,2.20
2019-05-13T09:41:44.561Z,2.30
2019-05-13T09:44:13.843Z,3.62
2019-05-13T09:46:43.705Z,2.20
2019-05-13T09:49:19.710Z,1.67
2019-05-13T09:51:44.677Z,2.20
2019-05-13T09:54:14.263Z,2.58
2019-05-13T09:56:43.909Z,2.00
2019-05-13T09:59:13.694Z,1.92
2019-05-13T10:01:43.190Z,1.82
2019-05-13T10:04:12.806Z,2.10
2019-05-13T10:06:42.360Z,1.92
2019-05-13T10:09:12.746Z,1.72
2019-05-13T10:11:42.336Z,4.45
2019-05-13T10:14:11.954Z,1.82
2019-05-13T10:16:42.774Z,1.75
2019-05-13T10:19:12.913Z,1.87
2019-05-13T10:21:43.062Z,3.00
2019-05-13T10:24:12.994Z,1.55
2019-05-13T10:26:43.341Z,1.60
2019-05-13T10:29:14.869Z,1.57
2019-05-13T10:31:44.664Z,2.67
2019-05-13T10:34:14.373Z,2.12
2019-05-13T10:36:44.281Z,1.85
2019-05-13T10:39:14.115Z,2.45
2019-05-13T10:41:43.642Z,1.70
2019-05-13T10:44:13.222Z,1.50
2019-05-13T10:46:43.023Z,1.75
2019-05-13T10:49:12.971Z,1.50
2019-05-13T10:51:42.449Z,1.60
2019-05-13T10:54:12.073Z,2.47
2019-05-13T10:56:42.970Z,1.50
2019-05-13T10:59:12.921Z,2.17
2019-05-13T11:01:42.875Z,1.52
2019-05-13T11:04:13.648Z,1.50
2019-05-13T11:06:43.526Z,1.90
2019-05-13T11:09:13.370Z,1.67
2019-05-13T11:11:42.842Z,1.87
2019-05-13T11:14:15.495Z,1.57
2019-05-13T11:16:43.474Z,1.22
2019-05-13T11:19:13.104Z,1.40
2019-05-13T11:21:44.160Z,1.60
2019-05-13T11:24:13.838Z,1.92
2019-05-13T11:26:43.484Z,1.20
2019-05-13T11:29:12.926Z,1.52
2019-05-13T11:31:43.064Z,2.00
2019-05-13T11:34:12.749Z,1.40
2019-05-13T11:36:43.409Z,1.35
2019-05-13T11:39:13.306Z,1.50
2019-05-13T11:41:43.038Z,1.30
2019-05-13T11:44:16.614Z,1.60
2019-05-13T11:46:43.769Z,3.27
2019-05-13T11:49:13.466Z,1.70
2019-05-13T11:51:43.446Z,1.80
2019-05-13T11:54:13.837Z,1.50
2019-05-13T11:56:49.310Z,1.12
2019-05-13T11:59:15.034Z,1.20
2019-05-13T12:01:44.571Z,3.02
2019-05-13T12:04:14.069Z,1.87
2019-05-13T12:06:48.838Z,2.47
2019-05-13T12:09:15.097Z,1.65
2019-05-13T12:11:46.001Z,1.70
2019-05-13T12:14:41.000Z,3.25
2019-05-13T12:16:47.745Z,1.07
2019-05-13T12:19:17.500Z,4.00
2019-05-13T12:21:47.127Z,1.42
2019-05-13T12:24:16.757Z,2.00
2019-05-13T12:26:46.218Z,1.05
2019-05-13T12:29:19.185Z,2.52
2019-05-13T12:31:46.829Z,2.65
2019-05-13T12:34:17.914Z,1.10
2019-05-13T12:36:47.717Z,0.78
2019-05-13T12:39:17.540Z,1.10
2019-05-13T12:41:47.124Z,2.77
2019-05-13T12:44:16.636Z,1.67
2019-05-13T12:46:50.229Z,0.98
2019-05-13T12:49:17.435Z,1.30
2019-05-13T12:51:47.231Z,1.05
2019-05-13T12:54:16.725Z,1.40
2019-05-13T12:56:46.219Z,1.90
2019-05-13T12:59:16.890Z,1.90
2019-05-13T13:01:46.499Z,1.02
2019-05-13T13:04:16.054Z,1.12
2019-05-13T13:06:53.973Z,1.25
2019-05-13T13:09:33.531Z,1.25
2019-05-13T13:12:01.501Z,1.82
2019-05-13T13:14:39.052Z,1.40
2019-05-13T13:17:04.237Z,1.75
2019-05-13T13:19:34.697Z,1.22
2019-05-13T13:22:07.996Z,1.10
2019-05-13T13:24:35.437Z,1.30
2019-05-13T13:27:05.158Z,1.70
2019-05-13T13:29:34.653Z,2.10
2019-05-13T13:32:04.657Z,1.20
2019-05-13T13:34:34.123Z,1.27
2019-05-13T13:37:05.278Z,1.47
2019-05-13T13:39:35.435Z,4.42
2019-05-13T13:42:05.941Z,1.80
2019-05-13T13:44:35.593Z,1.30
2019-05-13T13:47:05.114Z,1.40
2019-05-13T13:49:35.289Z,3.25
2019-05-13T13:52:05.048Z,1.10
2019-05-13T13:54:34.946Z,1.25
2019-05-13T13:57:04.526Z,1.20
2019-05-13T13:59:35.884Z,1.12
2019-05-13T14:02:05.849Z,3.98
2019-05-13T14:04:35.432Z,1.65
2019-05-13T14:06:25.158Z,2.85
2019-05-13T14:07:22.548Z,3.40
2019-05-13T14:09:36.206Z,1.20
2019-05-13T14:12:05.755Z,1.50
2019-05-13T14:14:37.262Z,1.70
2019-05-13T14:17:06.824Z,1.10
2019-05-13T14:19:36.332Z,0.95
2019-05-13T14:22:05.842Z,2.10
2019-05-13T14:24:35.277Z,1.40
2019-05-13T14:27:05.077Z,1.27
2019-05-13T14:29:40.613Z,1.00
2019-05-13T14:32:06.160Z,1.00
2019-05-13T14:34:35.658Z,1.02
2019-05-13T14:37:05.226Z,1.30
2019-05-13T14:39:36.236Z,1.17
2019-05-13T14:42:06.006Z,3.35
2019-05-13T14:44:36.931Z,1.30
2019-05-13T14:47:06.414Z,1.12
2019-05-13T14:49:35.865Z,1.05
2019-05-13T14:52:05.563Z,1.22
2019-05-13T14:54:35.074Z,1.10
2019-05-13T14:57:04.666Z,1.00
2019-05-13T14:59:34.150Z,1.07
2019-05-13T15:02:03.609Z,1.00
2019-05-13T15:04:33.197Z,1.20
2019-05-13T15:07:02.678Z,1.15
2019-05-13T15:09:32.921Z,0.90
2019-05-13T15:12:02.547Z,1.30
2019-05-13T15:14:32.093Z,1.15
2019-05-13T15:17:06.276Z,0.82
2019-05-13T15:19:33.188Z,1.10
2019-05-13T15:22:02.871Z,1.02
2019-05-13T15:24:32.744Z,1.00
2019-05-13T15:27:02.530Z,1.12
2019-05-13T15:29:32.121Z,1.15
2019-05-13T15:32:02.234Z,1.22
2019-05-13T15:34:32.584Z,1.30
2019-05-13T15:37:02.349Z,1.27
2019-05-13T15:39:32.075Z,1.12
2019-05-13T15:42:02.278Z,1.30
2019-05-13T15:44:32.833Z,1.42
2019-05-13T15:47:18.235Z,1.17
2019-05-13T15:49:33.650Z,1.30
2019-05-13T15:52:03.104Z,1.10
2019-05-13T15:54:33.663Z,1.20
2019-05-13T15:57:03.266Z,1.10
2019-05-13T15:59:32.971Z,1.20
2019-05-13T16:02:02.603Z,1.20
2019-05-13T16:04:32.661Z,1.10
2019-05-13T16:07:02.100Z,1.10
2019-05-13T16:09:32.577Z,1.30
2019-05-13T16:12:02.187Z,1.10
2019-05-13T16:14:31.835Z,1.17
2019-05-13T16:17:01.313Z,1.10
2019-05-13T16:19:32.618Z,1.40
2019-05-13T16:22:02.656Z,1.27
2019-05-13T16:24:32.357Z,1.30
2019-05-13T16:27:03.233Z,1.20
2019-05-13T16:29:33.765Z,1.42
2019-05-13T16:32:03.530Z,1.10
2019-05-13T16:34:33.289Z,1.25
2019-05-13T16:37:02.915Z,1.20
2019-05-13T16:39:32.555Z,1.37
2019-05-13T16:42:02.072Z,1.50
2019-05-13T16:44:32.021Z,1.30
2019-05-13T16:47:02.232Z,1.57
2019-05-13T16:49:32.086Z,2.10
2019-05-13T16:52:02.585Z,1.52
2019-05-13T16:54:33.088Z,1.40
2019-05-13T16:57:02.691Z,1.47
2019-05-13T16:59:32.250Z,1.67
2019-05-13T17:02:02.815Z,1.35
2019-05-13T17:04:32.377Z,1.20
2019-05-13T17:07:01.948Z,1.40
2019-05-13T17:09:32.294Z,1.47
2019-05-13T17:12:02.220Z,1.05
2019-05-13T17:14:32.230Z,1.40
2019-05-13T17:17:01.922Z,1.10
2019-05-13T17:19:31.910Z,1.40
2019-05-13T17:22:02.501Z,1.20
2019-05-13T17:24:32.319Z,1.00
2019-05-13T17:27:02.804Z,1.10
2019-05-13T17:29:33.955Z,1.40
2019-05-13T17:32:03.595Z,1.50
2019-05-13T17:34:33.063Z,1.32
2019-05-13T17:37:03.419Z,1.10
2019-05-13T17:39:32.875Z,1.30
2019-05-13T17:42:02.867Z,1.20
2019-05-13T17:44:32.742Z,1.42
2019-05-13T17:47:02.309Z,1.30
2019-05-13T17:49:32.157Z,1.40
2019-05-13T17:52:02.528Z,1.30
2019-05-13T17:54:33.389Z,1.72
2019-05-13T17:57:03.028Z,1.60
2019-05-13T17:59:33.522Z,1.40
2019-05-13T18:02:03.177Z,1.40
2019-05-13T18:04:32.700Z,1.67
2019-05-13T18:07:02.289Z,1.50
2019-05-13T18:09:32.912Z,1.52
2019-05-13T18:12:02.638Z,1.32
2019-05-13T18:14:33.131Z,1.60
2019-05-13T18:17:02.640Z,1.40
2019-05-13T18:19:32.089Z,1.42
2019-05-13T18:22:02.387Z,1.65
2019-05-13T18:24:32.260Z,1.40
2019-05-13T18:27:01.832Z,1.85
2019-05-13T18:29:31.749Z,1.90
2019-05-13T18:32:02.452Z,1.32
2019-05-13T18:34:32.336Z,1.50
2019-05-13T18:37:02.960Z,1.52
2019-05-13T18:39:32.566Z,1.60
2019-05-13T18:42:02.485Z,1.60
2019-05-13T18:44:32.057Z,1.67
2019-05-13T18:47:01.807Z,1.60
2019-05-13T18:49:31.990Z,1.70
2019-05-13T18:52:01.563Z,1.77
2019-05-13T18:54:31.700Z,1.77
2019-05-13T18:57:01.869Z,1.47
2019-05-13T18:59:32.917Z,1.75
2019-05-13T19:02:02.415Z,1.70
2019-05-13T19:04:32.029Z,1.65
2019-05-13T19:07:02.517Z,2.00
2019-05-13T19:09:32.116Z,1.50
2019-05-13T19:12:01.700Z,1.98
2019-05-13T19:14:31.760Z,1.90
2019-05-13T19:17:01.797Z,1.70
2019-05-13T19:19:31.797Z,1.60
2019-05-13T19:22:02.171Z,1.45
2019-05-13T19:24:32.872Z,1.50
2019-05-13T19:27:02.379Z,1.50
2019-05-13T19:29:32.070Z,1.52
2019-05-13T19:32:01.996Z,1.50
2019-05-13T19:34:32.423Z,1.92
2019-05-13T19:37:02.698Z,1.55
2019-05-13T19:39:32.315Z,1.60
2019-05-13T19:42:01.862Z,1.70
2019-05-13T19:44:31.898Z,1.70
2019-05-13T19:47:02.093Z,1.72
2019-05-13T19:49:36.851Z,1.45
2019-05-13T19:52:03.438Z,1.42
2019-05-13T19:54:33.179Z,1.60
2019-05-13T19:57:03.213Z,1.50
2019-05-13T19:59:32.694Z,1.60
2019-05-13T20:02:02.265Z,1.40
2019-05-13T20:04:31.977Z,1.45
2019-05-13T20:07:01.531Z,1.50
2019-05-13T20:09:32.202Z,1.50
2019-05-13T20:12:02.187Z,1.62
2019-05-13T20:14:31.960Z,1.60
2019-05-13T20:17:01.709Z,1.70
2019-05-13T20:19:46.034Z,2.00
2019-05-13T20:22:02.591Z,1.67
2019-05-13T20:24:32.132Z,1.80
2019-05-13T20:27:01.778Z,2.12
2019-05-13T20:29:31.437Z,1.80
2019-05-13T20:32:01.473Z,1.98
2019-05-13T20:34:31.848Z,1.92
2019-05-13T20:37:02.206Z,1.90
2019-05-13T20:39:32.187Z,1.90
2019-05-13T20:42:02.115Z,1.85
2019-05-13T20:44:31.686Z,2.08
2019-05-13T20:47:01.707Z,2.15
2019-05-13T20:49:31.490Z,2.35
2019-05-13T20:52:01.474Z,2.20
2019-05-13T20:54:31.585Z,2.20
2019-05-13T20:57:01.966Z,2.37
2019-05-13T20:59:32.325Z,2.40
2019-05-13T21:02:02.480Z,2.50
2019-05-13T21:04:32.435Z,2.70
2019-05-13T21:07:02.294Z,2.50
2019-05-13T21:09:33.024Z,2.60
2019-05-13T21:12:02.853Z,3.02
2019-05-13T21:14:33.369Z,2.20
2019-05-13T21:17:02.947Z,2.70
2019-05-13T21:19:39.412Z,2.30
2019-05-13T21:22:03.641Z,2.80
2019-05-13T21:24:33.084Z,2.85
2019-05-13T21:27:02.565Z,2.90
2019-05-13T21:29:32.438Z,2.83
2019-05-13T21:32:02.048Z,3.10
2019-05-13T21:34:31.752Z,2.70
2019-05-13T21:37:02.536Z,2.77
2019-05-13T21:39:32.208Z,2.67
2019-05-13T21:42:02.376Z,2.72
2019-05-13T21:44:32.805Z,3.02
2019-05-13T21:47:03.407Z,2.92
2019-05-13T21:49:33.150Z,2.72
2019-05-13T21:52:02.638Z,2.27
2019-05-13T21:54:33.592Z,2.70
2019-05-13T21:57:03.207Z,2.60
2019-05-13T21:59:32.688Z,2.67
2019-05-13T22:02:02.779Z,2.37
2019-05-13T22:04:32.636Z,2.55
2019-05-13T22:07:02.121Z,2.50
2019-05-13T22:09:32.018Z,2.62
2019-05-13T22:12:02.048Z,2.72
2019-05-13T22:14:32.158Z,2.90
2019-05-13T22:17:02.105Z,2.70
2019-05-13T22:19:32.023Z,2.87
2019-05-13T22:22:02.568Z,2.65
2019-05-13T22:24:32.364Z,2.80
2019-05-13T22:27:02.179Z,2.83
2019-05-13T22:29:32.333Z,2.70
2019-05-13T22:32:02.284Z,2.83
2019-05-13T22:34:32.150Z,2.60
2019-05-13T22:37:02.569Z,2.60
2019-05-13T22:39:34.589Z,2.95
2019-05-13T22:42:03.445Z,2.87
2019-05-13T22:44:33.571Z,3.25
2019-05-13T22:47:04.235Z,3.10
2019-05-13T22:49:33.740Z,3.12
2019-05-13T22:52:03.245Z,2.85
2019-05-13T22:54:32.697Z,2.87
2019-05-13T22:57:02.201Z,2.75
2019-05-13T22:59:32.261Z,2.98
2019-05-13T23:02:01.968Z,2.80
2019-05-13T23:04:31.626Z,3.12
2019-05-13T23:07:02.039Z,2.98
2019-05-13T23:09:32.277Z,3.12
2019-05-13T23:12:02.319Z,3.25
2019-05-13T23:14:31.761Z,3.10
2019-05-13T23:17:02.223Z,3.20
2019-05-13T23:19:32.532Z,3.40
2019-05-13T23:22:01.990Z,3.22
2019-05-13T23:24:31.555Z,2.87
2019-05-13T23:27:02.185Z,3.10
2019-05-13T23:29:32.086Z,3.40
2019-05-13T23:32:01.675Z,3.42
2019-05-13T23:34:31.789Z,3.27
2019-05-13T23:37:02.442Z,3.30
2019-05-13T23:39:32.265Z,3.00
2019-05-13T23:42:01.840Z,3.00
2019-05-13T23:44:32.229Z,3.40
2019-05-13T23:47:01.851Z,3.42
2019-05-13T23:49:31.849Z,3.33
2019-05-13T23:52:02.513Z,3.37
2019-05-13T23:54:32.257Z,3.58
2019-05-13T23:57:01.706Z,3.42
2019-05-13T23:59:31.533Z,3.50
